createdAt,value
2022-10-22T00:00:22.987Z,1008.80
2022-10-22T00:01:25.893Z,1008.83
2022-10-22T00:02:29.047Z,1008.79
2022-10-22T00:04:04.374Z,1008.80
2022-10-22T00:05:07.106Z,1008.79
2022-10-22T00:06:09.932Z,1008.77
2022-10-22T00:07:45.183Z,1008.81
2022-10-22T00:08:48.263Z,1008.80
2022-10-22T00:09:51.851Z,1008.84
2022-10-22T00:11:26.642Z,1008.80
2022-10-22T00:12:29.400Z,1008.84
2022-10-22T00:13:32.276Z,1008.86
2022-10-22T00:15:07.064Z,1008.84
2022-10-22T00:16:09.858Z,1008.90
2022-10-22T00:17:17.028Z,1008.88
2022-10-22T00:18:51.827Z,1008.93
2022-10-22T00:19:54.613Z,1008.91
2022-10-22T00:20:57.466Z,1008.95
2022-10-22T00:22:32.217Z,1008.99
2022-10-22T00:23:35.358Z,1009.00
2022-10-22T00:24:38.528Z,1009.00
2022-10-22T00:26:13.012Z,1009.03
2022-10-22T00:27:15.736Z,1009.06
2022-10-22T00:28:18.584Z,1009.05
2022-10-22T00:29:53.320Z,1009.10
2022-10-22T00:30:56.172Z,1009.11
2022-10-22T00:31:59.265Z,1009.08
2022-10-22T00:33:34.511Z,1009.08
2022-10-22T00:34:37.430Z,1009.06
2022-10-22T00:35:40.329Z,1009.11
2022-10-22T00:37:14.864Z,1009.06
2022-10-22T00:38:17.591Z,1009.09
2022-10-22T00:39:20.618Z,1009.09
2022-10-22T00:40:55.309Z,1009.08
2022-10-22T00:41:59.205Z,1009.07
2022-10-22T00:43:01.826Z,1009.08
2022-10-22T00:44:36.510Z,1009.07
2022-10-22T00:45:39.474Z,1009.03
2022-10-22T00:46:42.242Z,1009.01
2022-10-22T00:48:16.943Z,1009.04
2022-10-22T00:49:19.764Z,1009.03
2022-10-22T00:50:22.471Z,1009.05
2022-10-22T00:51:57.013Z,1009.05
2022-10-22T00:53:00.294Z,1009.01
2022-10-22T00:54:02.913Z,1009.00
2022-10-22T00:55:37.706Z,1008.97
2022-10-22T00:56:40.862Z,1009.00
2022-10-22T00:57:43.696Z,1008.96
2022-10-22T00:59:18.216Z,1008.97
2022-10-22T01:00:23.678Z,1009.02
2022-10-22T01:01:26.986Z,1009.01
2022-10-22T01:02:29.782Z,1009.01
2022-10-22T01:04:05.033Z,1009.04
2022-10-22T01:05:07.875Z,1009.04
2022-10-22T01:06:10.760Z,1009.07
2022-10-22T01:07:45.505Z,1009.04
2022-10-22T01:08:48.904Z,1009.07
2022-10-22T01:09:52.310Z,1009.06
2022-10-22T01:11:27.047Z,1009.07
2022-10-22T01:12:29.873Z,1009.13
2022-10-22T01:13:33.163Z,1009.08
2022-10-22T01:15:07.812Z,1009.17
2022-10-22T01:16:10.620Z,1009.14
2022-10-22T01:17:13.374Z,1009.14
2022-10-22T01:18:47.944Z,1009.14
2022-10-22T01:19:50.569Z,1009.13
2022-10-22T01:20:53.367Z,1009.08
2022-10-22T01:22:27.689Z,1009.05
2022-10-22T01:23:30.397Z,1009.09
2022-10-22T01:24:33.578Z,1009.06
2022-10-22T01:26:08.004Z,1009.06
2022-10-22T01:27:11.410Z,1009.10
2022-10-22T01:28:14.174Z,1009.09
2022-10-22T01:29:48.538Z,1009.06
2022-10-22T01:30:51.485Z,1009.05
2022-10-22T01:31:54.569Z,1009.09
2022-10-22T01:33:29.178Z,1009.08
2022-10-22T01:34:32.405Z,1009.12
2022-10-22T01:35:35.587Z,1009.09
2022-10-22T01:37:10.110Z,1009.09
2022-10-22T01:38:13.213Z,1009.05
2022-10-22T01:39:16.149Z,1009.07
2022-10-22T01:40:50.709Z,1009.02
2022-10-22T01:41:53.452Z,1009.01
2022-10-22T01:42:56.210Z,1009.02
2022-10-22T01:44:31.235Z,1008.99
2022-10-22T01:45:33.951Z,1009.01
2022-10-22T01:46:36.670Z,1009.00
2022-10-22T01:48:11.207Z,1009.06
2022-10-22T01:49:14.311Z,1009.01
2022-10-22T01:50:16.991Z,1009.04
2022-10-22T01:51:51.455Z,1009.05
2022-10-22T01:52:54.543Z,1009.07
2022-10-22T01:53:57.926Z,1009.01
2022-10-22T01:55:32.707Z,1009.03
2022-10-22T01:56:35.454Z,1008.98
2022-10-22T01:57:38.649Z,1008.96
2022-10-22T01:59:13.233Z,1008.96
2022-10-22T02:00:23.257Z,1008.93
2022-10-22T02:01:26.257Z,1008.95
2022-10-22T02:02:29.292Z,1008.97
2022-10-22T02:04:09.530Z,1008.90
2022-10-22T02:05:12.384Z,1008.89
2022-10-22T02:06:15.398Z,1008.88
2022-10-22T02:07:50.693Z,1008.85
2022-10-22T02:08:53.721Z,1008.89
2022-10-22T02:09:56.614Z,1008.86
2022-10-22T02:11:31.512Z,1008.88
2022-10-22T02:12:34.751Z,1008.93
2022-10-22T02:13:38.826Z,1008.92
2022-10-22T02:15:13.428Z,1008.95
2022-10-22T02:16:16.102Z,1008.95
2022-10-22T02:17:18.944Z,1008.95
2022-10-22T02:18:53.763Z,1008.96
2022-10-22T02:19:56.425Z,1008.99
2022-10-22T02:20:59.208Z,1008.99
2022-10-22T02:22:33.786Z,1009.01
2022-10-22T02:23:36.799Z,1009.00
2022-10-22T02:24:39.544Z,1009.06
2022-10-22T02:26:14.329Z,1009.02
2022-10-22T02:27:17.157Z,1009.01
2022-10-22T02:28:24.368Z,1009.08
2022-10-22T02:29:59.034Z,1008.99
2022-10-22T02:31:01.936Z,1009.08
2022-10-22T02:32:04.588Z,1009.05
2022-10-22T02:33:40.018Z,1009.03
2022-10-22T02:34:43.271Z,1009.02
2022-10-22T02:35:46.275Z,1009.07
2022-10-22T02:37:20.935Z,1009.00
2022-10-22T02:38:23.837Z,1009.00
2022-10-22T02:39:27.850Z,1009.01
2022-10-22T02:41:02.399Z,1008.95
2022-10-22T02:42:05.355Z,1008.99
2022-10-22T02:43:08.204Z,1009.02
2022-10-22T02:44:43.321Z,1008.98
2022-10-22T02:45:46.415Z,1009.01
2022-10-22T02:46:49.506Z,1008.97
2022-10-22T02:48:24.269Z,1009.00
2022-10-22T02:49:26.931Z,1008.96
2022-10-22T02:50:29.833Z,1009.01
2022-10-22T02:52:04.666Z,1008.96
2022-10-22T02:53:07.325Z,1008.95
2022-10-22T02:54:10.177Z,1008.97
2022-10-22T02:55:44.770Z,1009.01
2022-10-22T02:56:47.545Z,1009.01
2022-10-22T02:57:50.937Z,1009.00
2022-10-22T02:59:25.582Z,1009.03
2022-10-22T03:00:23.795Z,1009.02
2022-10-22T03:01:27.745Z,1009.07
2022-10-22T03:02:30.490Z,1009.05
2022-10-22T03:04:05.142Z,1009.04
2022-10-22T03:05:07.851Z,1009.01
2022-10-22T03:06:10.716Z,1009.04
2022-10-22T03:07:46.050Z,1009.06
2022-10-22T03:08:49.557Z,1009.10
2022-10-22T03:09:52.821Z,1009.13
2022-10-22T03:11:27.328Z,1009.12
2022-10-22T03:12:30.141Z,1009.13
2022-10-22T03:13:33.119Z,1009.07
2022-10-22T03:15:07.573Z,1009.10
2022-10-22T03:16:10.311Z,1009.08
2022-10-22T03:17:13.132Z,1009.07
2022-10-22T03:18:47.645Z,1009.10
2022-10-22T03:19:50.332Z,1009.10
2022-10-22T03:20:53.165Z,1009.11
2022-10-22T03:22:27.787Z,1009.10
2022-10-22T03:23:30.519Z,1009.11
2022-10-22T03:24:33.641Z,1009.13
2022-10-22T03:26:08.178Z,1009.11
2022-10-22T03:27:10.999Z,1009.13
2022-10-22T03:28:14.073Z,1009.14
2022-10-22T03:29:48.662Z,1009.11
2022-10-22T03:30:51.507Z,1009.13
2022-10-22T03:31:54.326Z,1009.14
2022-10-22T03:33:28.931Z,1009.09
2022-10-22T03:34:31.710Z,1009.12
2022-10-22T03:35:34.562Z,1009.11
2022-10-22T03:37:09.017Z,1009.15
2022-10-22T03:38:11.719Z,1009.12
2022-10-22T03:39:14.581Z,1009.13
2022-10-22T03:40:48.977Z,1009.12
2022-10-22T03:41:51.680Z,1009.13
2022-10-22T03:42:54.385Z,1009.14
2022-10-22T03:44:28.890Z,1009.13
2022-10-22T03:45:32.174Z,1009.16
2022-10-22T03:46:35.134Z,1009.16
2022-10-22T03:48:09.716Z,1009.19
2022-10-22T03:49:12.778Z,1009.17
2022-10-22T03:50:15.682Z,1009.17
2022-10-22T03:51:50.117Z,1009.22
2022-10-22T03:52:53.007Z,1009.26
2022-10-22T03:53:56.034Z,1009.26
2022-10-22T03:55:30.751Z,1009.25
2022-10-22T03:56:33.542Z,1009.26
2022-10-22T03:57:36.904Z,1009.29
2022-10-22T03:59:12.031Z,1009.31
2022-10-22T04:00:23.502Z,1009.31
2022-10-22T04:01:26.654Z,1009.27
2022-10-22T04:02:29.831Z,1009.29
2022-10-22T04:04:04.299Z,1009.31
2022-10-22T04:05:55.050Z,1009.32
2022-10-22T04:06:58.020Z,1009.33
2022-10-22T04:08:00.960Z,1009.29
2022-10-22T04:09:36.328Z,1009.26
2022-10-22T04:10:39.514Z,1009.29
2022-10-22T04:11:42.552Z,1009.30
2022-10-22T04:13:17.400Z,1009.26
2022-10-22T04:14:20.312Z,1009.28
2022-10-22T04:15:23.648Z,1009.27
2022-10-22T04:16:58.723Z,1009.25
2022-10-22T04:18:01.911Z,1009.26
2022-10-22T04:19:04.701Z,1009.20
2022-10-22T04:20:39.551Z,1009.19
2022-10-22T04:21:43.066Z,1009.23
2022-10-22T04:22:46.492Z,1009.27
2022-10-22T04:24:20.923Z,1009.25
2022-10-22T04:25:24.209Z,1009.30
2022-10-22T04:26:27.266Z,1009.28
2022-10-22T04:28:02.343Z,1009.31
2022-10-22T04:29:05.329Z,1009.34
2022-10-22T04:30:13.415Z,1009.31
2022-10-22T04:31:48.527Z,1009.26
2022-10-22T04:32:51.774Z,1009.30
2022-10-22T04:33:54.651Z,1009.31
2022-10-22T04:35:29.902Z,1009.30
2022-10-22T04:36:33.014Z,1009.35
2022-10-22T04:37:36.049Z,1009.33
2022-10-22T04:39:11.579Z,1009.29
2022-10-22T04:40:14.478Z,1009.32
2022-10-22T04:41:17.665Z,1009.34
2022-10-22T04:42:52.475Z,1009.32
2022-10-22T04:43:55.650Z,1009.28
2022-10-22T04:45:05.720Z,1009.34
2022-10-22T04:46:40.584Z,1009.34
2022-10-22T04:47:43.997Z,1009.40
2022-10-22T04:48:46.982Z,1009.40
2022-10-22T04:50:21.859Z,1009.38
2022-10-22T04:51:24.951Z,1009.41
2022-10-22T04:52:27.810Z,1009.40
2022-10-22T04:54:02.740Z,1009.43
2022-10-22T04:55:07.057Z,1009.42
2022-10-22T04:56:10.159Z,1009.45
2022-10-22T04:57:45.761Z,1009.44
2022-10-22T04:58:48.825Z,1009.47
2022-10-22T04:59:51.708Z,1009.45
2022-10-22T05:00:23.582Z,1009.46
2022-10-22T05:01:27.185Z,1009.45
2022-10-22T05:02:35.005Z,1009.46
2022-10-22T05:04:09.656Z,1009.50
2022-10-22T05:05:12.578Z,1009.47
2022-10-22T05:06:15.867Z,1009.46
2022-10-22T05:07:51.547Z,1009.45
2022-10-22T05:08:54.750Z,1009.48
2022-10-22T05:09:58.421Z,1009.47
2022-10-22T05:11:33.520Z,1009.52
2022-10-22T05:12:36.410Z,1009.48
2022-10-22T05:13:39.418Z,1009.47
2022-10-22T05:15:14.541Z,1009.49
2022-10-22T05:16:17.600Z,1009.48
2022-10-22T05:17:20.940Z,1009.47
2022-10-22T05:18:56.168Z,1009.51
2022-10-22T05:19:59.157Z,1009.51
2022-10-22T05:21:02.309Z,1009.46
2022-10-22T05:22:36.910Z,1009.44
2022-10-22T05:23:39.804Z,1009.45
2022-10-22T05:24:42.762Z,1009.47
2022-10-22T05:26:18.086Z,1009.44
2022-10-22T05:27:21.349Z,1009.47
2022-10-22T05:28:24.602Z,1009.47
2022-10-22T05:29:59.177Z,1009.49
2022-10-22T05:31:02.345Z,1009.52
2022-10-22T05:32:05.212Z,1009.50
2022-10-22T05:33:39.992Z,1009.55
2022-10-22T05:34:42.941Z,1009.51
2022-10-22T05:35:51.241Z,1009.58
2022-10-22T05:37:26.284Z,1009.53
2022-10-22T05:38:30.232Z,1009.58
2022-10-22T05:39:33.390Z,1009.55
2022-10-22T05:41:28.711Z,1009.52
2022-10-22T05:42:31.688Z,1009.54
2022-10-22T05:43:35.114Z,1009.54
2022-10-22T05:45:10.239Z,1009.52
2022-10-22T05:46:13.270Z,1009.56
2022-10-22T05:47:20.411Z,1009.59
2022-10-22T05:48:55.420Z,1009.57
2022-10-22T05:49:58.437Z,1009.58
2022-10-22T05:51:01.470Z,1009.60
2022-10-22T05:52:36.221Z,1009.65
2022-10-22T05:53:39.717Z,1009.66
2022-10-22T05:54:42.813Z,1009.67
2022-10-22T05:56:17.904Z,1009.69
2022-10-22T05:57:20.904Z,1009.75
2022-10-22T05:58:23.934Z,1009.73
2022-10-22T05:59:58.623Z,1009.79
2022-10-22T06:00:27.839Z,1009.79
2022-10-22T06:01:30.489Z,1009.76
2022-10-22T06:02:33.673Z,1009.72
2022-10-22T06:04:09.173Z,1009.77
2022-10-22T06:05:12.290Z,1009.79
2022-10-22T06:06:15.244Z,1009.81
2022-10-22T06:07:50.162Z,1009.82
2022-10-22T06:08:53.269Z,1009.81
2022-10-22T06:09:56.662Z,1009.81
2022-10-22T06:11:34.312Z,1009.81
2022-10-22T06:12:38.864Z,1009.77
2022-10-22T06:13:41.978Z,1009.80
2022-10-22T06:15:16.710Z,1009.90
2022-10-22T06:16:19.509Z,1009.85
2022-10-22T06:17:22.572Z,1009.84
2022-10-22T06:18:57.977Z,1009.89
2022-10-22T06:20:00.795Z,1009.98
2022-10-22T06:21:03.784Z,1009.97
2022-10-22T06:22:38.953Z,1009.96
2022-10-22T06:23:42.112Z,1009.98
2022-10-22T06:24:50.061Z,1010.00
2022-10-22T06:26:25.038Z,1010.01
2022-10-22T06:27:28.179Z,1009.98
2022-10-22T06:28:31.514Z,1010.01
2022-10-22T06:30:06.147Z,1010.02
2022-10-22T06:31:09.109Z,1010.01
2022-10-22T06:32:12.285Z,1010.07
2022-10-22T06:33:46.825Z,1010.04
2022-10-22T06:34:49.704Z,1010.02
2022-10-22T06:35:52.708Z,1010.01
2022-10-22T06:37:31.707Z,1010.06
2022-10-22T06:38:35.741Z,1010.07
2022-10-22T06:39:38.817Z,1010.05
2022-10-22T06:41:14.235Z,1010.03
2022-10-22T06:42:21.549Z,1010.02
2022-10-22T06:43:24.837Z,1010.11
2022-10-22T06:44:59.712Z,1010.15
2022-10-22T06:46:02.628Z,1010.10
2022-10-22T06:47:11.560Z,1010.18
2022-10-22T06:48:46.995Z,1010.21
2022-10-22T06:49:49.728Z,1010.27
2022-10-22T06:50:52.463Z,1010.32
2022-10-22T06:52:27.069Z,1010.31
2022-10-22T06:53:30.037Z,1010.33
2022-10-22T06:54:32.996Z,1010.29
2022-10-22T06:56:07.875Z,1010.32
2022-10-22T06:57:10.835Z,1010.33
2022-10-22T06:58:13.821Z,1010.32
2022-10-22T06:59:48.529Z,1010.40
2022-10-22T07:00:23.368Z,1010.40
2022-10-22T07:01:26.645Z,1010.43
2022-10-22T07:02:29.855Z,1010.38
2022-10-22T07:04:05.795Z,1010.41
2022-10-22T07:05:08.572Z,1010.44
2022-10-22T07:06:11.385Z,1010.44
2022-10-22T07:07:46.284Z,1010.46
2022-10-22T07:08:50.420Z,1010.43
2022-10-22T07:09:54.272Z,1010.45
2022-10-22T07:11:29.437Z,1010.44
2022-10-22T07:12:32.905Z,1010.47
2022-10-22T07:13:36.254Z,1010.49
2022-10-22T07:15:11.075Z,1010.52
2022-10-22T07:16:14.476Z,1010.53
2022-10-22T07:17:23.860Z,1010.58
2022-10-22T07:18:59.067Z,1010.60
2022-10-22T07:20:03.352Z,1010.61
2022-10-22T07:21:06.414Z,1010.62
2022-10-22T07:22:41.433Z,1010.62
2022-10-22T07:23:44.722Z,1010.63
2022-10-22T07:24:47.661Z,1010.66
2022-10-22T07:26:27.510Z,1010.70
2022-10-22T07:27:30.526Z,1010.70
2022-10-22T07:28:34.130Z,1010.69
2022-10-22T07:30:08.926Z,1010.74
2022-10-22T07:31:11.844Z,1010.73
2022-10-22T07:32:14.690Z,1010.74
2022-10-22T07:33:53.134Z,1010.78
2022-10-22T07:34:56.342Z,1010.79
2022-10-22T07:35:59.209Z,1010.75
2022-10-22T07:37:34.407Z,1010.81
2022-10-22T07:38:38.086Z,1010.86
2022-10-22T07:39:41.040Z,1010.86
2022-10-22T07:41:21.937Z,1010.92
2022-10-22T07:42:25.005Z,1010.94
2022-10-22T07:43:28.158Z,1010.95
2022-10-22T07:45:02.911Z,1010.96
2022-10-22T07:46:06.279Z,1010.92
2022-10-22T07:47:09.500Z,1010.94
2022-10-22T07:48:44.347Z,1010.94
2022-10-22T07:49:47.158Z,1010.95
2022-10-22T07:50:50.482Z,1010.95
2022-10-22T07:52:25.188Z,1010.98
2022-10-22T07:53:28.607Z,1010.97
2022-10-22T07:54:31.342Z,1010.99
2022-10-22T07:56:06.235Z,1010.98
2022-10-22T07:57:09.142Z,1011.00
2022-10-22T07:58:11.947Z,1011.02
2022-10-22T07:59:46.607Z,1011.02
2022-10-22T08:00:27.427Z,1011.05
2022-10-22T08:01:30.751Z,1011.04
2022-10-22T08:02:33.978Z,1011.08
2022-10-22T08:04:09.342Z,1011.07
2022-10-22T08:05:12.401Z,1011.02
2022-10-22T08:06:15.231Z,1011.08
2022-10-22T08:07:50.158Z,1011.08
2022-10-22T08:08:53.804Z,1011.08
2022-10-22T08:09:57.081Z,1011.12
2022-10-22T08:11:31.839Z,1011.14
2022-10-22T08:12:35.384Z,1011.15
2022-10-22T08:13:44.091Z,1011.18
2022-10-22T08:15:20.346Z,1011.13
2022-10-22T08:16:23.440Z,1011.12
2022-10-22T08:17:26.661Z,1011.15
2022-10-22T08:19:02.538Z,1011.16
2022-10-22T08:20:05.442Z,1011.19
2022-10-22T08:21:08.544Z,1011.20
2022-10-22T08:22:43.596Z,1011.20
2022-10-22T08:23:46.382Z,1011.17
2022-10-22T08:24:49.929Z,1011.19
2022-10-22T08:26:24.755Z,1011.25
2022-10-22T08:27:27.586Z,1011.24
2022-10-22T08:28:33.605Z,1011.25
2022-10-22T08:30:08.237Z,1011.21
2022-10-22T08:31:11.093Z,1011.23
2022-10-22T08:32:13.924Z,1011.24
2022-10-22T08:33:51.376Z,1011.27
2022-10-22T08:34:54.294Z,1011.29
2022-10-22T08:36:01.499Z,1011.22
2022-10-22T08:37:36.376Z,1011.26
2022-10-22T08:38:39.939Z,1011.29
2022-10-22T08:39:43.314Z,1011.29
2022-10-22T08:41:18.139Z,1011.29
2022-10-22T08:42:20.959Z,1011.30
2022-10-22T08:43:24.186Z,1011.37
2022-10-22T08:44:59.063Z,1011.33
2022-10-22T08:46:01.980Z,1011.34
2022-10-22T08:47:04.792Z,1011.33
2022-10-22T08:48:44.950Z,1011.33
2022-10-22T08:49:53.192Z,1011.33
2022-10-22T08:50:56.193Z,1011.37
2022-10-22T08:52:30.950Z,1011.42
2022-10-22T08:53:34.432Z,1011.42
2022-10-22T08:54:37.672Z,1011.42
2022-10-22T08:56:12.486Z,1011.41
2022-10-22T08:57:15.258Z,1011.42
2022-10-22T08:58:18.365Z,1011.46
2022-10-22T08:59:53.114Z,1011.50
2022-10-22T09:00:23.799Z,1011.50
2022-10-22T09:01:26.886Z,1011.51
2022-10-22T09:02:29.709Z,1011.52
2022-10-22T09:04:05.090Z,1011.48
2022-10-22T09:05:11.562Z,1011.49
2022-10-22T09:06:15.348Z,1011.52
2022-10-22T09:07:52.752Z,1011.56
2022-10-22T09:08:56.086Z,1011.57
2022-10-22T09:09:59.243Z,1011.56
2022-10-22T09:11:34.013Z,1011.56
2022-10-22T09:12:37.093Z,1011.58
2022-10-22T09:13:39.981Z,1011.62
2022-10-22T09:15:14.732Z,1011.69
2022-10-22T09:16:17.805Z,1011.66
2022-10-22T09:17:20.795Z,1011.67
2022-10-22T09:18:55.839Z,1011.70
2022-10-22T09:19:59.246Z,1011.65
2022-10-22T09:21:02.713Z,1011.67
2022-10-22T09:22:37.891Z,1011.74
2022-10-22T09:23:41.416Z,1011.75
2022-10-22T09:24:44.971Z,1011.76
2022-10-22T09:26:20.319Z,1011.71
2022-10-22T09:27:23.345Z,1011.72
2022-10-22T09:28:26.943Z,1011.70
2022-10-22T09:30:02.076Z,1011.77
2022-10-22T09:31:05.010Z,1011.80
2022-10-22T09:32:07.872Z,1011.77
2022-10-22T09:33:42.791Z,1011.81
2022-10-22T09:34:45.677Z,1011.82
2022-10-22T09:35:48.661Z,1011.89
2022-10-22T09:37:23.664Z,1011.87
2022-10-22T09:38:27.154Z,1011.89
2022-10-22T09:39:30.046Z,1011.98
2022-10-22T09:41:04.938Z,1011.92
2022-10-22T09:42:07.869Z,1011.99
2022-10-22T09:43:11.216Z,1011.91
2022-10-22T09:44:51.834Z,1012.02
2022-10-22T09:45:55.075Z,1012.00
2022-10-22T09:46:58.603Z,1011.99
2022-10-22T09:48:54.880Z,1011.98
2022-10-22T09:49:57.745Z,1012.06
2022-10-22T09:51:00.812Z,1012.03
2022-10-22T09:52:35.674Z,1012.01
2022-10-22T09:53:38.997Z,1012.01
2022-10-22T09:54:41.897Z,1012.04
2022-10-22T09:56:17.343Z,1012.08
2022-10-22T09:57:20.258Z,1012.08
2022-10-22T09:58:27.116Z,1012.10
2022-10-22T10:00:23.362Z,1012.14
2022-10-22T10:01:26.266Z,1012.17
2022-10-22T10:02:48.700Z,1012.14
2022-10-22T10:05:28.389Z,1012.21
2022-10-22T10:06:31.402Z,1012.25
2022-10-22T10:08:06.773Z,1012.27
2022-10-22T10:09:09.855Z,1012.31
2022-10-22T10:10:13.378Z,1012.32
2022-10-22T10:11:48.208Z,1012.32
2022-10-22T10:12:52.547Z,1012.34
2022-10-22T10:13:55.480Z,1012.31
2022-10-22T10:15:30.250Z,1012.34
2022-10-22T10:16:33.438Z,1012.37
2022-10-22T10:17:36.279Z,1012.40
2022-10-22T10:19:11.489Z,1012.41
2022-10-22T10:20:15.870Z,1012.38
2022-10-22T10:21:18.899Z,1012.40
2022-10-22T10:22:54.574Z,1012.44
2022-10-22T10:23:57.589Z,1012.53
2022-10-22T10:25:01.074Z,1012.51
2022-10-22T10:26:36.226Z,1012.51
2022-10-22T10:27:39.621Z,1012.48
2022-10-22T10:28:42.484Z,1012.56
2022-10-22T10:30:17.506Z,1012.58
2022-10-22T10:31:20.593Z,1012.61
2022-10-22T10:32:29.390Z,1012.64
2022-10-22T10:34:04.777Z,1012.60
2022-10-22T10:35:07.678Z,1012.62
2022-10-22T10:36:10.607Z,1012.60
2022-10-22T10:37:45.589Z,1012.61
2022-10-22T10:38:49.664Z,1012.60
2022-10-22T10:39:52.728Z,1012.63
2022-10-22T10:41:27.761Z,1012.62
2022-10-22T10:42:30.725Z,1012.61
2022-10-22T10:43:34.320Z,1012.63
2022-10-22T10:45:09.120Z,1012.65
2022-10-22T10:46:12.160Z,1012.71
2022-10-22T10:47:18.417Z,1012.72
2022-10-22T10:48:53.096Z,1012.71
2022-10-22T10:49:56.066Z,1012.69
2022-10-22T10:50:59.415Z,1012.72
2022-10-22T10:52:34.581Z,1012.71
2022-10-22T10:53:38.014Z,1012.73
2022-10-22T10:54:41.201Z,1012.73
2022-10-22T10:56:16.059Z,1012.73
2022-10-22T10:57:24.444Z,1012.71
2022-10-22T10:58:27.941Z,1012.75
2022-10-22T11:00:24.020Z,1012.79
2022-10-22T11:01:27.336Z,1012.74
2022-10-22T11:02:30.384Z,1012.80
2022-10-22T11:04:05.375Z,1012.75
2022-10-22T11:05:08.505Z,1012.78
2022-10-22T11:06:11.458Z,1012.77
2022-10-22T11:08:20.433Z,1012.79
2022-10-22T11:09:24.187Z,1012.76
2022-10-22T11:10:27.249Z,1012.72
2022-10-22T11:12:02.527Z,1012.74
2022-10-22T11:13:05.412Z,1012.76
2022-10-22T11:14:08.521Z,1012.75
2022-10-22T11:15:48.303Z,1012.74
2022-10-22T11:16:51.517Z,1012.71
2022-10-22T11:17:54.637Z,1012.84
2022-10-22T11:19:59.937Z,1012.71
2022-10-22T11:21:03.359Z,1012.76
2022-10-22T11:22:06.354Z,1012.76
2022-10-22T11:24:15.145Z,1012.78
2022-10-22T11:25:18.216Z,1012.77
2022-10-22T11:26:21.361Z,1012.79
2022-10-22T11:27:59.819Z,1012.86
2022-10-22T11:29:09.134Z,1012.82
2022-10-22T11:30:16.808Z,1012.83
2022-10-22T11:31:51.638Z,1012.84
2022-10-22T11:32:54.987Z,1012.81
2022-10-22T11:34:28.533Z,1012.79
2022-10-22T11:36:12.187Z,1012.79
2022-10-22T11:37:15.086Z,1012.76
2022-10-22T11:38:17.991Z,1012.77
2022-10-22T11:39:58.869Z,1012.78
2022-10-22T11:41:01.947Z,1012.80
2022-10-22T11:42:04.882Z,1012.80
2022-10-22T11:43:39.823Z,1012.79
2022-10-22T11:44:43.032Z,1012.82
2022-10-22T11:45:46.207Z,1012.78
2022-10-22T11:47:21.109Z,1012.77
2022-10-22T11:48:24.759Z,1012.82
2022-10-22T11:49:27.756Z,1012.82
2022-10-22T11:51:02.943Z,1012.84
2022-10-22T11:52:10.697Z,1012.82
2022-10-22T11:53:13.778Z,1012.84
2022-10-22T11:54:48.966Z,1012.78
2022-10-22T11:55:52.219Z,1012.83
2022-10-22T11:56:55.095Z,1012.83
2022-10-22T11:58:30.966Z,1012.82
2022-10-22T11:59:40.147Z,1012.80
2022-10-22T12:00:23.865Z,1012.81
2022-10-22T12:01:27.229Z,1012.87
2022-10-22T12:02:30.472Z,1012.81
2022-10-22T12:04:05.988Z,1012.80
2022-10-22T12:05:09.332Z,1012.82
2022-10-22T12:06:12.261Z,1012.81
2022-10-22T12:07:47.476Z,1012.79
2022-10-22T12:08:50.822Z,1012.81
2022-10-22T12:09:54.174Z,1012.80
2022-10-22T12:11:32.971Z,1012.74
2022-10-22T12:12:36.017Z,1012.83
2022-10-22T12:13:39.707Z,1012.79
2022-10-22T12:15:14.409Z,1012.76
2022-10-22T12:16:32.114Z,1012.83
2022-10-22T12:17:54.765Z,1012.83
2022-10-22T12:19:29.885Z,1012.81
2022-10-22T12:20:33.198Z,1012.79
2022-10-22T12:21:36.357Z,1012.82
2022-10-22T12:23:11.183Z,1012.79
2022-10-22T12:24:14.182Z,1012.77
2022-10-22T12:25:17.034Z,1012.79
2022-10-22T12:26:58.846Z,1012.76
2022-10-22T12:28:09.117Z,1012.80
2022-10-22T12:29:12.138Z,1012.79
2022-10-22T12:30:47.131Z,1012.77
2022-10-22T12:31:50.201Z,1012.77
2022-10-22T12:32:53.138Z,1012.79
2022-10-22T12:34:28.234Z,1012.76
2022-10-22T12:35:31.812Z,1012.77
2022-10-22T12:36:34.897Z,1012.80
2022-10-22T12:38:10.118Z,1012.78
2022-10-22T12:39:13.167Z,1012.82
2022-10-22T12:40:16.114Z,1012.83
2022-10-22T12:41:51.009Z,1012.85
2022-10-22T12:42:54.165Z,1012.81
2022-10-22T12:43:57.335Z,1012.87
2022-10-22T12:45:32.114Z,1012.84
2022-10-22T12:46:35.253Z,1012.87
2022-10-22T12:47:43.636Z,1012.85
2022-10-22T12:49:18.798Z,1012.85
2022-10-22T12:50:21.803Z,1012.82
2022-10-22T12:51:24.983Z,1012.88
2022-10-22T12:53:05.061Z,1012.83
2022-10-22T12:54:08.160Z,1012.83
2022-10-22T12:55:11.013Z,1012.85
2022-10-22T12:56:45.778Z,1012.83
2022-10-22T12:57:48.904Z,1012.86
2022-10-22T12:58:51.682Z,1012.90
2022-10-22T13:00:23.441Z,1012.92
2022-10-22T13:01:26.679Z,1012.89
2022-10-22T13:02:29.871Z,1012.94
2022-10-22T13:04:05.288Z,1012.93
2022-10-22T13:05:08.386Z,1012.92
2022-10-22T13:06:11.361Z,1012.93
2022-10-22T13:07:46.124Z,1012.92
2022-10-22T13:08:49.320Z,1012.97
2022-10-22T13:09:52.927Z,1012.98
2022-10-22T13:11:27.791Z,1012.99
2022-10-22T13:12:30.550Z,1013.03
2022-10-22T13:13:33.734Z,1013.08
2022-10-22T13:15:08.738Z,1013.07
2022-10-22T13:16:11.668Z,1013.10
2022-10-22T13:17:14.718Z,1013.11
2022-10-22T13:18:49.715Z,1013.06
2022-10-22T13:19:52.602Z,1013.06
2022-10-22T13:20:55.565Z,1013.05
2022-10-22T13:22:30.285Z,1013.09
2022-10-22T13:23:33.217Z,1013.03
2022-10-22T13:24:36.064Z,1013.08
2022-10-22T13:26:11.402Z,1013.03
2022-10-22T13:27:14.400Z,1013.05
2022-10-22T13:28:17.273Z,1013.07
2022-10-22T13:29:51.843Z,1013.07
2022-10-22T13:30:55.192Z,1013.04
2022-10-22T13:31:58.071Z,1013.03
2022-10-22T13:33:32.877Z,1013.02
2022-10-22T13:34:35.767Z,1013.04
2022-10-22T13:35:39.010Z,1013.03
2022-10-22T13:37:13.975Z,1013.13
2022-10-22T13:38:16.858Z,1013.10
2022-10-22T13:39:19.771Z,1013.10
2022-10-22T13:40:58.442Z,1013.15
2022-10-22T13:42:01.467Z,1013.11
2022-10-22T13:43:04.351Z,1013.09
2022-10-22T13:44:39.254Z,1013.14
2022-10-22T13:45:42.405Z,1013.09
2022-10-22T13:46:45.421Z,1013.10
2022-10-22T13:48:20.406Z,1013.09
2022-10-22T13:49:23.330Z,1013.13
2022-10-22T13:50:26.283Z,1013.11
2022-10-22T13:52:01.197Z,1013.18
2022-10-22T13:53:04.234Z,1013.16
2022-10-22T13:54:10.831Z,1013.19
2022-10-22T13:55:45.691Z,1013.21
2022-10-22T13:56:49.013Z,1013.20
2022-10-22T13:57:52.299Z,1013.20
2022-10-22T13:59:32.731Z,1013.18
2022-10-22T14:00:23.879Z,1013.17
2022-10-22T14:01:27.373Z,1013.17
2022-10-22T14:02:30.297Z,1013.16
2022-10-22T14:04:05.461Z,1013.21
2022-10-22T14:05:08.475Z,1013.16
2022-10-22T14:06:11.546Z,1013.24
2022-10-22T14:07:51.306Z,1013.26
2022-10-22T14:08:54.692Z,1013.28
2022-10-22T14:09:58.146Z,1013.31
2022-10-22T14:11:33.356Z,1013.29
2022-10-22T14:12:36.479Z,1013.27
2022-10-22T14:13:45.290Z,1013.27
2022-10-22T14:15:20.253Z,1013.29
2022-10-22T14:16:23.276Z,1013.33
2022-10-22T14:17:26.272Z,1013.29
2022-10-22T14:19:01.486Z,1013.24
2022-10-22T14:20:04.559Z,1013.23
2022-10-22T14:21:07.540Z,1013.26
2022-10-22T14:22:42.472Z,1013.29
2022-10-22T14:23:45.711Z,1013.29
2022-10-22T14:24:48.729Z,1013.26
2022-10-22T14:26:24.127Z,1013.25
2022-10-22T14:27:27.017Z,1013.22
2022-10-22T14:28:34.162Z,1013.25
2022-10-22T14:30:45.544Z,1013.24
2022-10-22T14:31:50.185Z,1013.27
2022-10-22T14:32:53.699Z,1013.23
2022-10-22T14:34:30.006Z,1013.24
2022-10-22T14:35:33.295Z,1013.24
2022-10-22T14:36:36.370Z,1013.22
2022-10-22T14:38:11.329Z,1013.23
2022-10-22T14:39:14.543Z,1013.24
2022-10-22T14:40:17.653Z,1013.23
2022-10-22T14:41:52.680Z,1013.22
2022-10-22T14:42:55.922Z,1013.24
2022-10-22T14:43:58.958Z,1013.17
2022-10-22T14:45:34.682Z,1013.19
2022-10-22T14:46:37.738Z,1013.18
2022-10-22T14:47:40.802Z,1013.23
2022-10-22T14:49:16.796Z,1013.21
2022-10-22T14:50:19.665Z,1013.23
2022-10-22T14:51:22.573Z,1013.21
2022-10-22T14:53:01.013Z,1013.20
2022-10-22T14:54:04.212Z,1013.26
2022-10-22T14:55:07.157Z,1013.27
2022-10-22T14:56:43.104Z,1013.27